createdAt,value
2017-07-27T00:00:05.919Z,6.15
2017-07-27T00:02:33.423Z,6.22
2017-07-27T00:05:00.942Z,5.93
2017-07-27T00:07:28.442Z,5.45
2017-07-27T00:09:55.970Z,6.30
2017-07-27T00:12:24.246Z,5.72
2017-07-27T00:14:51.786Z,6.28
2017-07-27T00:17:19.295Z,6.10
2017-07-27T00:19:46.811Z,6.18
2017-07-27T00:22:14.341Z,6.53
2017-07-27T00:24:41.842Z,6.60
2017-07-27T00:27:10.126Z,6.18
2017-07-27T00:29:38.395Z,6.35
2017-07-27T00:32:06.689Z,7.20
2017-07-27T00:34:34.198Z,6.55
2017-07-27T00:37:01.734Z,6.30
2017-07-27T00:39:29.243Z,6.40
2017-07-27T00:41:56.743Z,5.85
2017-07-27T00:44:24.271Z,6.20
2017-07-27T00:46:52.558Z,6.18
2017-07-27T00:49:20.080Z,7.55
2017-07-27T00:51:47.584Z,5.72
2017-07-27T00:54:15.120Z,6.95
2017-07-27T00:56:42.623Z,5.95
2017-07-27T00:59:10.147Z,6.20
2017-07-27T01:01:38.447Z,6.60
2017-07-27T01:04:05.954Z,6.10
2017-07-27T01:06:33.470Z,6.50
2017-07-27T01:09:00.988Z,5.85
2017-07-27T01:11:28.513Z,6.57
2017-07-27T01:13:56.014Z,6.65
2017-07-27T01:16:24.294Z,6.55
2017-07-27T01:18:52.587Z,6.75
2017-07-27T01:21:20.098Z,8.07
2017-07-27T01:23:47.639Z,6.47
2017-07-27T01:26:15.160Z,6.80
2017-07-27T01:28:42.678Z,7.03
2017-07-27T01:31:10.182Z,6.47
2017-07-27T01:33:37.707Z,6.40
2017-07-27T01:36:05.216Z,5.72
2017-07-27T01:38:32.730Z,7.18
2017-07-27T01:41:00.247Z,6.35
2017-07-27T01:43:27.749Z,6.53
2017-07-27T01:45:55.274Z,5.87
2017-07-27T01:48:22.790Z,6.12
2017-07-27T01:50:50.313Z,6.45
2017-07-27T01:53:17.837Z,6.50
2017-07-27T01:55:45.352Z,6.00
2017-07-27T01:58:13.652Z,6.65
2017-07-27T02:00:41.177Z,6.70
2017-07-27T02:03:08.699Z,6.18
2017-07-27T02:05:36.228Z,7.07
2017-07-27T02:08:03.746Z,5.85
2017-07-27T02:10:31.252Z,6.75
2017-07-27T02:12:58.765Z,6.60
2017-07-27T02:15:26.295Z,6.35
2017-07-27T02:17:53.802Z,6.45
2017-07-27T02:20:21.339Z,6.47
2017-07-27T02:22:48.848Z,6.47
2017-07-27T02:25:16.382Z,5.70
2017-07-27T02:27:43.894Z,5.78
2017-07-27T02:30:11.404Z,5.82
2017-07-27T02:32:39.692Z,6.55
2017-07-27T02:35:07.197Z,6.35
2017-07-27T02:37:34.731Z,6.32
2017-07-27T02:40:02.235Z,5.95
2017-07-27T02:42:29.779Z,5.75
2017-07-27T02:44:57.294Z,6.57
2017-07-27T02:47:24.794Z,6.20
2017-07-27T02:49:52.321Z,6.70
2017-07-27T02:52:19.835Z,5.57
2017-07-27T02:54:47.379Z,6.43
2017-07-27T02:57:14.884Z,6.90
2017-07-27T02:59:42.411Z,5.40
2017-07-27T03:02:09.924Z,5.95
2017-07-27T03:04:37.460Z,5.60
2017-07-27T03:07:04.972Z,5.85
2017-07-27T03:09:32.488Z,5.50
2017-07-27T03:12:00.003Z,6.25
2017-07-27T03:14:27.523Z,5.97
2017-07-27T03:16:55.049Z,6.00
2017-07-27T03:19:22.558Z,5.90
2017-07-27T03:21:50.078Z,5.30
2017-07-27T03:24:17.591Z,5.72
2017-07-27T03:26:45.126Z,5.40
2017-07-27T03:29:12.635Z,5.93
2017-07-27T03:31:40.911Z,5.75
2017-07-27T03:34:08.439Z,6.25
2017-07-27T03:36:35.947Z,5.80
2017-07-27T03:39:03.467Z,6.00
2017-07-27T03:41:30.983Z,5.20
2017-07-27T03:43:58.506Z,5.18
2017-07-27T03:46:26.783Z,6.47
2017-07-27T03:48:55.078Z,5.80
2017-07-27T03:51:22.601Z,6.12
2017-07-27T03:53:50.094Z,5.32
2017-07-27T03:56:18.372Z,6.47
2017-07-27T03:58:45.883Z,5.72
2017-07-27T04:01:13.411Z,4.97
2017-07-27T04:03:40.914Z,5.87
2017-07-27T04:06:08.432Z,6.12
2017-07-27T04:08:35.942Z,5.30
2017-07-27T04:11:03.480Z,5.40
2017-07-27T04:13:31.028Z,5.60
2017-07-27T04:15:58.532Z,5.75
2017-07-27T04:18:26.835Z,6.07
2017-07-27T04:20:54.338Z,5.03
2017-07-27T04:23:21.854Z,5.72
2017-07-27T04:25:49.361Z,5.50
2017-07-27T04:28:16.879Z,5.00
2017-07-27T04:30:44.391Z,4.60
2017-07-27T04:33:11.910Z,5.75
2017-07-27T04:35:39.410Z,5.45
2017-07-27T04:38:06.966Z,6.80
2017-07-27T04:40:34.466Z,4.78
2017-07-27T04:43:02.583Z,4.90
2017-07-27T04:45:30.120Z,5.60
2017-07-27T04:47:57.636Z,5.47
2017-07-27T04:50:25.151Z,5.60
2017-07-27T04:52:52.651Z,5.12
2017-07-27T04:55:20.930Z,5.32
2017-07-27T04:58:00.217Z,5.05
2017-07-27T05:00:27.738Z,5.25
2017-07-27T05:02:55.244Z,5.10
2017-07-27T05:05:22.778Z,5.43
2017-07-27T05:07:50.274Z,5.68
2017-07-27T05:10:17.789Z,5.75
2017-07-27T05:12:45.323Z,5.45
2017-07-27T05:15:13.594Z,5.43
2017-07-27T05:17:41.880Z,5.05
2017-07-27T05:20:09.398Z,5.90
2017-07-27T05:22:36.928Z,4.80
2017-07-27T05:25:04.435Z,6.40
2017-07-27T05:27:31.987Z,5.05
2017-07-27T05:29:59.556Z,4.70
2017-07-27T05:32:27.061Z,4.60
2017-07-27T05:34:55.031Z,4.80
2017-07-27T05:37:22.542Z,4.90
2017-07-27T05:39:51.075Z,3.67
2017-07-27T05:42:18.594Z,4.18
2017-07-27T05:44:46.878Z,4.05
2017-07-27T05:47:14.396Z,4.50
2017-07-27T05:49:41.938Z,3.95
2017-07-27T05:52:09.442Z,3.95
2017-07-27T05:54:36.945Z,3.75
2017-07-27T05:57:04.462Z,3.58
2017-07-27T05:59:32.735Z,4.20
2017-07-27T06:02:01.035Z,4.45
2017-07-27T06:04:28.548Z,3.50
2017-07-27T06:06:56.071Z,3.80
2017-07-27T06:09:23.575Z,3.20
2017-07-27T06:11:51.093Z,4.12
2017-07-27T06:14:18.616Z,3.00
2017-07-27T06:16:46.167Z,2.80
2017-07-27T06:19:14.459Z,3.55
2017-07-27T06:21:41.978Z,3.55
2017-07-27T06:24:09.535Z,3.58
2017-07-27T06:26:37.067Z,3.53
2017-07-27T06:29:04.596Z,3.47
2017-07-27T06:31:32.099Z,3.40
2017-07-27T06:33:59.620Z,3.25
2017-07-27T06:36:27.124Z,2.70
2017-07-27T06:38:54.638Z,3.47
2017-07-27T06:41:22.166Z,3.33
2017-07-27T06:43:49.669Z,2.85
2017-07-27T06:46:17.207Z,4.05
2017-07-27T06:48:45.489Z,3.33
2017-07-27T06:51:13.785Z,3.12
2017-07-27T06:53:41.317Z,3.40
2017-07-27T06:56:09.614Z,2.85
2017-07-27T06:58:37.136Z,3.20
2017-07-27T07:01:04.642Z,3.30
2017-07-27T07:03:32.167Z,3.70
2017-07-27T07:06:00.459Z,3.42
2017-07-27T07:08:27.987Z,3.10
2017-07-27T07:10:55.514Z,3.05
2017-07-27T07:13:23.032Z,4.50
2017-07-27T07:15:51.310Z,3.62
2017-07-27T07:18:18.844Z,2.70
2017-07-27T07:20:46.363Z,3.62
2017-07-27T07:23:13.890Z,3.17
2017-07-27T07:25:41.420Z,3.37
2017-07-27T07:28:08.931Z,2.97
2017-07-27T07:30:36.465Z,2.90
2017-07-27T07:33:03.977Z,2.60
2017-07-27T07:35:31.503Z,3.00
2017-07-27T07:37:59.010Z,3.40
2017-07-27T07:40:26.552Z,3.85
2017-07-27T07:42:54.062Z,2.85
2017-07-27T07:45:21.571Z,3.15
2017-07-27T07:47:49.121Z,3.12
2017-07-27T07:50:16.636Z,3.58
2017-07-27T07:52:44.164Z,3.30
2017-07-27T07:55:11.687Z,2.75
2017-07-27T07:57:39.220Z,3.50
2017-07-27T08:00:06.736Z,3.28
2017-07-27T08:02:34.266Z,3.58
2017-07-27T08:05:01.788Z,3.72
2017-07-27T08:07:30.073Z,3.25
2017-07-27T08:10:09.391Z,3.80
2017-07-27T08:12:37.684Z,2.60
2017-07-27T08:15:06.000Z,2.70
2017-07-27T08:17:33.516Z,2.60
2017-07-27T08:20:01.799Z,2.60
2017-07-27T08:22:30.080Z,2.83
2017-07-27T08:24:57.619Z,3.03
2017-07-27T08:27:25.131Z,3.00
2017-07-27T08:29:52.650Z,3.70
2017-07-27T08:32:20.226Z,3.03
2017-07-27T08:34:47.765Z,2.92
2017-07-27T08:37:16.056Z,3.00
2017-07-27T08:39:43.561Z,2.90
2017-07-27T08:42:11.087Z,3.00
2017-07-27T08:44:38.603Z,2.50
2017-07-27T08:47:06.141Z,3.40
2017-07-27T08:49:33.653Z,4.00
2017-07-27T08:52:01.173Z,2.92
2017-07-27T08:54:28.706Z,2.85
2017-07-27T08:56:56.233Z,3.03
2017-07-27T08:59:23.762Z,3.08
2017-07-27T09:01:51.280Z,2.40
2017-07-27T09:04:18.816Z,3.00
2017-07-27T09:06:46.329Z,2.95
2017-07-27T09:09:13.850Z,3.20
2017-07-27T09:11:41.358Z,3.28
2017-07-27T09:14:09.633Z,3.35
2017-07-27T09:16:37.156Z,3.42
2017-07-27T09:19:04.659Z,3.53
2017-07-27T09:21:32.954Z,3.75
2017-07-27T09:24:00.479Z,3.17
2017-07-27T09:26:28.007Z,3.00
2017-07-27T09:28:55.525Z,2.70
2017-07-27T09:31:23.808Z,2.60
2017-07-27T09:33:51.324Z,3.25
2017-07-27T09:36:18.844Z,2.65
2017-07-27T09:38:46.374Z,3.20
2017-07-27T09:41:14.648Z,3.17
2017-07-27T09:43:42.180Z,3.22
2017-07-27T09:46:09.691Z,2.95
2017-07-27T09:48:37.227Z,2.55
2017-07-27T09:51:05.508Z,2.60
2017-07-27T09:53:33.803Z,2.40
2017-07-27T09:56:01.327Z,2.80
2017-07-27T09:58:29.625Z,2.70
2017-07-27T10:00:57.919Z,3.00
2017-07-27T10:03:25.417Z,3.45
2017-07-27T10:05:52.935Z,3.03
2017-07-27T10:08:20.433Z,4.07
2017-07-27T10:10:47.963Z,3.00
2017-07-27T10:13:15.473Z,2.25
2017-07-27T10:15:42.998Z,2.60
2017-07-27T10:18:10.503Z,2.67
2017-07-27T10:20:38.799Z,2.62
2017-07-27T10:23:06.334Z,2.80
2017-07-27T10:25:33.858Z,2.30
2017-07-27T10:28:01.394Z,2.10
2017-07-27T10:30:28.898Z,2.10
2017-07-27T10:32:56.423Z,2.72
2017-07-27T10:35:23.938Z,3.40
2017-07-27T10:37:51.519Z,2.92
2017-07-27T10:40:19.038Z,2.62
2017-07-27T10:42:46.571Z,2.67
2017-07-27T10:45:14.166Z,2.75
2017-07-27T10:47:41.707Z,2.40
2017-07-27T10:50:09.223Z,2.80
2017-07-27T10:52:36.826Z,3.00
2017-07-27T10:55:04.353Z,2.42
2017-07-27T10:57:31.881Z,2.35
2017-07-27T10:59:59.412Z,3.50
2017-07-27T11:02:26.918Z,2.67
2017-07-27T11:04:54.517Z,3.15
2017-07-27T11:07:22.030Z,2.33
2017-07-27T11:09:49.552Z,2.72
2017-07-27T11:12:17.126Z,2.50
2017-07-27T11:14:44.674Z,2.35
2017-07-27T11:17:12.315Z,2.50
2017-07-27T11:19:39.842Z,2.37
2017-07-27T11:22:07.359Z,2.62
2017-07-27T11:24:34.908Z,2.45
2017-07-27T11:27:02.417Z,3.15
2017-07-27T11:29:29.942Z,2.75
2017-07-27T11:31:57.455Z,2.70
2017-07-27T11:34:24.983Z,2.50
2017-07-27T11:36:53.242Z,2.55
2017-07-27T11:39:20.771Z,2.60
2017-07-27T11:41:48.288Z,2.37
2017-07-27T11:44:15.818Z,3.00
2017-07-27T11:46:43.333Z,2.92
2017-07-27T11:49:10.863Z,2.90
2017-07-27T11:51:38.385Z,2.67
2017-07-27T11:54:05.891Z,2.28
2017-07-27T11:56:33.407Z,2.70
2017-07-27T11:59:00.918Z,2.08
2017-07-27T12:01:28.436Z,2.28
2017-07-27T12:03:57.442Z,2.17
2017-07-27T12:06:24.966Z,2.40
2017-07-27T12:08:52.474Z,1.92
2017-07-27T12:11:19.986Z,2.20
2017-07-27T12:13:47.507Z,2.12
2017-07-27T12:16:15.018Z,1.60
2017-07-27T12:18:42.537Z,1.80
2017-07-27T12:21:10.044Z,2.03
2017-07-27T12:23:38.335Z,1.90
2017-07-27T12:26:05.847Z,2.28
2017-07-27T12:28:33.370Z,1.92
2017-07-27T12:31:00.884Z,1.77
2017-07-27T12:33:28.396Z,1.90
2017-07-27T12:35:55.935Z,1.87
2017-07-27T12:38:23.438Z,1.90
2017-07-27T12:40:51.332Z,1.87
2017-07-27T12:43:18.922Z,1.80
2017-07-27T12:45:46.498Z,2.08
2017-07-27T12:48:14.103Z,2.00
2017-07-27T12:50:41.650Z,1.83
2017-07-27T12:53:09.163Z,1.85
2017-07-27T12:55:36.711Z,2.10
2017-07-27T12:58:05.037Z,2.20
2017-07-27T13:00:32.578Z,2.12
2017-07-27T13:03:00.167Z,1.92
2017-07-27T13:05:27.684Z,2.40
2017-07-27T13:07:55.478Z,2.00
2017-07-27T13:10:23.010Z,2.40
2017-07-27T13:12:50.567Z,2.25
2017-07-27T13:15:18.107Z,2.25
2017-07-27T13:17:46.406Z,2.42
2017-07-27T13:20:13.938Z,2.60
2017-07-27T13:22:41.555Z,2.10
2017-07-27T13:25:09.088Z,2.30
2017-07-27T13:27:36.601Z,2.40
2017-07-27T13:30:04.135Z,2.30
2017-07-27T13:32:31.658Z,2.30
2017-07-27T13:34:59.222Z,2.03
2017-07-27T13:37:26.758Z,2.20
2017-07-27T13:39:55.059Z,2.15
2017-07-27T13:42:22.578Z,1.83
2017-07-27T13:44:50.082Z,2.67
2017-07-27T13:47:17.629Z,2.65
2017-07-27T13:49:45.163Z,3.05
2017-07-27T13:52:12.697Z,3.15
2017-07-27T13:54:40.228Z,3.30
2017-07-27T13:57:07.769Z,3.47
2017-07-27T13:59:36.106Z,2.95
2017-07-27T14:02:03.623Z,3.65
2017-07-27T14:04:31.163Z,2.72
2017-07-27T14:06:58.681Z,2.28
2017-07-27T14:09:26.212Z,2.20
2017-07-27T14:11:53.730Z,2.03
2017-07-27T14:14:22.041Z,1.80
2017-07-27T14:16:49.550Z,2.75
2017-07-27T14:19:17.096Z,2.30
2017-07-27T14:21:44.614Z,2.35
2017-07-27T14:24:12.146Z,1.77
2017-07-27T14:26:40.446Z,2.20
2017-07-27T14:29:07.962Z,2.30
2017-07-27T14:31:35.486Z,2.12
2017-07-27T14:34:02.994Z,2.00
2017-07-27T14:36:31.289Z,1.83
2017-07-27T14:38:58.794Z,2.30
2017-07-27T14:41:26.359Z,1.83
2017-07-27T14:43:53.862Z,2.85
2017-07-27T14:46:21.383Z,2.10
2017-07-27T14:48:48.920Z,2.10
2017-07-27T14:51:16.431Z,2.42
2017-07-27T14:53:44.722Z,2.80
2017-07-27T14:56:12.774Z,2.35
2017-07-27T14:58:40.314Z,2.60
2017-07-27T15:01:07.823Z,3.17
2017-07-27T15:03:35.397Z,2.30
2017-07-27T15:06:02.902Z,3.00
2017-07-27T15:08:30.402Z,1.92
2017-07-27T15:10:57.941Z,2.83
2017-07-27T15:13:26.238Z,2.45
2017-07-27T15:15:53.771Z,2.10
2017-07-27T15:18:22.109Z,2.62
2017-07-27T15:20:49.643Z,2.50
2017-07-27T15:23:17.164Z,2.40
2017-07-27T15:25:45.477Z,2.10
2017-07-27T15:28:13.019Z,2.08
2017-07-27T15:30:40.598Z,2.60
2017-07-27T15:33:08.122Z,2.70
2017-07-27T15:35:36.398Z,2.30
2017-07-27T15:38:04.690Z,2.30
2017-07-27T15:40:32.219Z,2.42
2017-07-27T15:42:59.742Z,2.40
2017-07-27T15:45:27.318Z,2.72
2017-07-27T15:47:54.884Z,2.00
2017-07-27T15:50:22.395Z,2.55
2017-07-27T15:52:49.921Z,2.80
2017-07-27T15:55:18.220Z,2.30
2017-07-27T15:57:46.505Z,2.05
2017-07-27T16:00:14.626Z,2.45
2017-07-27T16:02:42.210Z,2.65
2017-07-27T16:05:10.755Z,2.60
2017-07-27T16:07:38.298Z,3.37
2017-07-27T16:10:05.859Z,2.47
2017-07-27T16:12:33.414Z,2.55
2017-07-27T16:15:00.936Z,2.30
2017-07-27T16:17:28.557Z,2.80
2017-07-27T16:19:56.187Z,2.08
2017-07-27T16:22:23.713Z,2.08
2017-07-27T16:24:51.235Z,2.25
2017-07-27T16:27:18.755Z,2.08
2017-07-27T16:29:47.031Z,2.40
2017-07-27T16:32:15.338Z,2.67
2017-07-27T16:34:42.843Z,2.50
2017-07-27T16:37:10.347Z,2.08
2017-07-27T16:39:37.877Z,2.30
2017-07-27T16:42:06.153Z,2.25
2017-07-27T16:44:34.442Z,2.22
2017-07-27T16:47:01.956Z,2.12
2017-07-27T16:49:30.380Z,2.42
2017-07-27T16:51:57.925Z,2.45
2017-07-27T16:54:25.466Z,2.70
2017-07-27T16:56:52.978Z,2.65
2017-07-27T16:59:20.491Z,2.30
2017-07-27T17:01:48.015Z,2.25
2017-07-27T17:04:15.530Z,2.40
2017-07-27T17:06:43.052Z,2.30
2017-07-27T17:09:10.571Z,2.37
2017-07-27T17:11:38.099Z,4.95
2017-07-27T17:14:06.528Z,3.10
2017-07-27T17:16:34.087Z,3.15
2017-07-27T17:19:01.636Z,1.90
2017-07-27T17:21:29.146Z,2.45
2017-07-27T17:23:56.679Z,2.25
2017-07-27T17:26:24.190Z,1.95
2017-07-27T17:28:51.734Z,2.72
2017-07-27T17:31:20.015Z,2.05
2017-07-27T17:33:47.696Z,2.30
2017-07-27T17:36:15.362Z,2.45
2017-07-27T17:38:42.896Z,2.22
2017-07-27T17:41:10.411Z,2.35
2017-07-27T17:43:38.070Z,2.47
2017-07-27T17:46:05.631Z,2.33
2017-07-27T17:48:33.138Z,2.20
2017-07-27T17:51:01.441Z,1.80
2017-07-27T17:53:28.970Z,2.10
2017-07-27T17:55:57.247Z,2.12
2017-07-27T17:58:24.776Z,2.03
2017-07-27T18:00:52.291Z,2.37
2017-07-27T18:03:19.839Z,2.35
2017-07-27T18:05:48.109Z,2.50
2017-07-27T18:08:16.411Z,2.47
2017-07-27T18:10:43.928Z,2.58
2017-07-27T18:13:11.439Z,2.55
2017-07-27T18:15:38.963Z,2.65
2017-07-27T18:18:07.239Z,2.45
2017-07-27T18:20:35.532Z,2.40
2017-07-27T18:23:03.043Z,2.70
2017-07-27T18:25:30.573Z,2.45
2017-07-27T18:27:58.074Z,2.40
2017-07-27T18:30:25.588Z,2.28
2017-07-27T18:32:53.108Z,3.00
2017-07-27T18:35:21.374Z,4.47
2017-07-27T18:37:48.904Z,4.65
2017-07-27T18:40:18.062Z,6.20
2017-07-27T18:42:45.682Z,6.57
2017-07-27T18:45:13.191Z,7.07
2017-07-27T18:47:40.735Z,6.50
2017-07-27T18:50:09.026Z,7.30
2017-07-27T18:52:36.786Z,6.60
2017-07-27T18:55:04.591Z,5.87
2017-07-27T18:57:32.124Z,5.00
2017-07-27T18:59:59.646Z,5.00
2017-07-27T19:02:27.175Z,4.87
2017-07-27T19:04:54.685Z,4.22
2017-07-27T19:07:23.186Z,5.12
2017-07-27T19:09:50.733Z,4.20
2017-07-27T19:12:18.256Z,4.85
2017-07-27T19:14:45.773Z,4.78
2017-07-27T19:17:13.302Z,4.47
2017-07-27T19:19:41.590Z,4.55
2017-07-27T19:22:09.118Z,4.37
2017-07-27T19:24:36.683Z,3.97
2017-07-27T19:27:04.211Z,4.30
2017-07-27T19:29:31.770Z,5.28
2017-07-27T19:32:05.183Z,4.03
2017-07-27T19:34:32.766Z,3.65
2017-07-27T19:37:00.334Z,4.30
2017-07-27T19:39:33.439Z,3.67
2017-07-27T19:42:00.976Z,3.45
2017-07-27T19:44:30.537Z,3.65
2017-07-27T19:46:58.134Z,3.50
2017-07-27T19:49:25.706Z,3.03
2017-07-27T19:51:53.267Z,3.47
2017-07-27T19:54:20.804Z,4.03
2017-07-27T19:56:48.363Z,3.40
2017-07-27T19:59:16.003Z,3.40
2017-07-27T20:01:43.534Z,3.50
2017-07-27T20:04:11.058Z,3.20
2017-07-27T20:06:39.362Z,3.42
2017-07-27T20:09:06.911Z,3.10
2017-07-27T20:11:34.435Z,3.53
2017-07-27T20:14:02.021Z,3.08
2017-07-27T20:16:29.583Z,3.15
2017-07-27T20:18:57.106Z,3.45
2017-07-27T20:21:24.651Z,3.50
2017-07-27T20:23:52.179Z,3.15
2017-07-27T20:26:19.772Z,3.70
2017-07-27T20:28:47.303Z,2.97
2017-07-27T20:31:14.867Z,2.90
2017-07-27T20:33:42.547Z,3.90
2017-07-27T20:36:10.063Z,4.12
2017-07-27T20:38:38.364Z,3.15
2017-07-27T20:41:05.895Z,3.25
2017-07-27T20:43:34.183Z,4.00
2017-07-27T20:46:02.510Z,3.53
2017-07-27T20:48:30.155Z,3.30
2017-07-27T20:50:57.664Z,4.22
2017-07-27T20:53:26.191Z,4.03
2017-07-27T20:55:53.704Z,4.12
2017-07-27T20:58:21.240Z,3.95
2017-07-27T21:00:48.792Z,3.80
2017-07-27T21:03:16.315Z,4.15
2017-07-27T21:05:43.830Z,3.50
2017-07-27T21:08:11.338Z,4.65
2017-07-27T21:10:38.886Z,4.15
2017-07-27T21:13:07.158Z,3.60
2017-07-27T21:15:34.721Z,4.00
2017-07-27T21:18:02.232Z,3.78
2017-07-27T21:20:29.747Z,3.80
2017-07-27T21:22:57.296Z,3.15
2017-07-27T21:25:26.376Z,3.78
2017-07-27T21:27:54.893Z,3.87
2017-07-27T21:30:22.412Z,3.30
2017-07-27T21:32:49.926Z,2.80
2017-07-27T21:35:17.462Z,3.17
2017-07-27T21:37:45.035Z,3.20
2017-07-27T21:40:12.538Z,3.25
2017-07-27T21:42:40.050Z,3.45
2017-07-27T21:45:07.562Z,2.85
2017-07-27T21:47:35.071Z,3.20
2017-07-27T21:50:02.667Z,3.70
2017-07-27T21:52:30.192Z,2.80
2017-07-27T21:54:58.194Z,2.92
2017-07-27T21:57:25.731Z,3.83
2017-07-27T21:59:53.384Z,3.22
2017-07-27T22:02:20.914Z,3.30
2017-07-27T22:04:49.238Z,3.60
2017-07-27T22:07:17.016Z,2.70
2017-07-27T22:09:44.659Z,2.78
2017-07-27T22:12:12.257Z,3.70
2017-07-27T22:14:41.650Z,3.05
2017-07-27T22:17:09.226Z,3.65
2017-07-27T22:19:36.801Z,3.65
2017-07-27T22:22:04.413Z,3.60
2017-07-27T22:24:32.090Z,3.55
2017-07-27T22:26:59.595Z,3.20
2017-07-27T22:29:27.246Z,3.35
2017-07-27T22:31:54.773Z,3.83
2017-07-27T22:34:22.385Z,3.62
2017-07-27T22:36:49.977Z,3.22
2017-07-27T22:39:18.496Z,3.42
2017-07-27T22:41:46.179Z,3.87
2017-07-27T22:44:14.406Z,3.35
2017-07-27T22:46:41.915Z,3.70
2017-07-27T22:49:09.410Z,4.20
2017-07-27T22:51:37.692Z,4.10
2017-07-27T22:54:05.963Z,4.35
2017-07-27T22:56:33.473Z,4.22
2017-07-27T22:59:00.971Z,3.87
2017-07-27T23:01:28.491Z,3.67
2017-07-27T23:03:55.994Z,4.78
2017-07-27T23:06:30.345Z,3.87
2017-07-27T23:08:57.850Z,3.78
2017-07-27T23:11:25.471Z,4.50
2017-07-27T23:13:52.976Z,4.75
2017-07-27T23:16:20.487Z,4.55
2017-07-27T23:18:48.011Z,4.60
2017-07-27T23:21:15.509Z,4.65
2017-07-27T23:23:43.021Z,4.68
2017-07-27T23:26:10.548Z,4.70
2017-07-27T23:28:38.069Z,4.55
2017-07-27T23:31:06.338Z,5.03
2017-07-27T23:33:34.670Z,4.62
2017-07-27T23:36:02.267Z,4.50
2017-07-27T23:38:29.769Z,5.07
2017-07-27T23:40:57.281Z,4.30
2017-07-27T23:43:25.548Z,5.87
2017-07-27T23:45:53.059Z,4.50
2017-07-27T23:48:20.572Z,5.00
2017-07-27T23:50:48.103Z,4.90
2017-07-27T23:53:15.631Z,5.10
2017-07-27T23:55:43.170Z,4.22
2017-07-27T23:58:11.444Z,4.15
